sensor_id;sensor_type;location;lat;lon;timestamp;pressure;altitude;pressure_sealevel;temperature;humidity
69980;BME280;57318;56.232;43.944;2023-03-19T00:01:22;100757.09;;;-5.34;60.41
69980;BME280;57318;56.232;43.944;2023-03-19T00:03:48;100758.81;;;-5.36;60.64
69980;BME280;57318;56.232;43.944;2023-03-19T00:06:14;100758.78;;;-5.39;60.68
69980;BME280;57318;56.232;43.944;2023-03-19T00:08:40;100770.00;;;-5.38;60.82
69980;BME280;57318;56.232;43.944;2023-03-19T00:11:11;100771.72;;;-5.44;60.93
69980;BME280;57318;56.232;43.944;2023-03-19T00:13:38;100769.94;;;-5.48;61.23
69980;BME280;57318;56.232;43.944;2023-03-19T00:16:05;100780.31;;;-5.48;61.31
69980;BME280;57318;56.232;43.944;2023-03-19T00:18:31;100772.50;;;-5.52;61.30
69980;BME280;57318;56.232;43.944;2023-03-19T00:20:57;100773.34;;;-5.52;61.73
69980;BME280;57318;56.232;43.944;2023-03-19T00:23:22;100776.81;;;-5.53;61.47
69980;BME280;57318;56.232;43.944;2023-03-19T00:25:48;100775.06;;;-5.57;61.70
69980;BME280;57318;56.232;43.944;2023-03-19T00:28:14;100769.00;;;-5.59;61.87
69980;BME280;57318;56.232;43.944;2023-03-19T00:30:39;100769.84;;;-5.62;62.16
69980;BME280;57318;56.232;43.944;2023-03-19T00:33:05;100766.38;;;-5.65;62.06
69980;BME280;57318;56.232;43.944;2023-03-19T00:35:31;100768.06;;;-5.70;62.46
69980;BME280;57318;56.232;43.944;2023-03-19T00:37:57;100768.03;;;-5.75;62.70
69980;BME280;57318;56.232;43.944;2023-03-19T00:40:23;100763.69;;;-5.76;62.79
69980;BME280;57318;56.232;43.944;2023-03-19T00:42:48;100772.28;;;-5.82;62.88
69980;BME280;57318;56.232;43.944;2023-03-19T00:45:14;100764.50;;;-5.82;63.28
69980;BME280;57318;56.232;43.944;2023-03-19T00:47:40;100761.06;;;-5.81;63.46
69980;BME280;57318;56.232;43.944;2023-03-19T00:50:07;100769.69;;;-5.85;63.43
69980;BME280;57318;56.232;43.944;2023-03-19T00:52:33;100766.22;;;-5.85;63.68
69980;BME280;57318;56.232;43.944;2023-03-19T00:54:58;100759.25;;;-5.92;63.69
69980;BME280;57318;56.232;43.944;2023-03-19T00:57:25;100753.19;;;-5.93;64.20
69980;BME280;57318;56.232;43.944;2023-03-19T00:59:51;100760.09;;;-5.95;64.06
69980;BME280;57318;56.232;43.944;2023-03-19T01:02:17;100765.28;;;-5.95;64.24
69980;BME280;57318;56.232;43.944;2023-03-19T01:04:42;100762.69;;;-5.98;64.28
69980;BME280;57318;56.232;43.944;2023-03-19T01:07:08;100761.78;;;-6.05;64.66
69980;BME280;57318;56.232;43.944;2023-03-19T01:09:34;100757.47;;;-6.01;64.90
69980;BME280;57318;56.232;43.944;2023-03-19T01:12:00;100753.13;;;-6.04;64.81
69980;BME280;57318;56.232;43.944;2023-03-19T01:14:30;100759.22;;;-6.02;64.95
69980;BME280;57318;56.232;43.944;2023-03-19T01:16:56;100747.06;;;-6.07;64.66
69980;BME280;57318;56.232;43.944;2023-03-19T01:19:21;100746.22;;;-6.08;65.33
69980;BME280;57318;56.232;43.944;2023-03-19T01:21:47;100751.41;;;-6.06;65.16
69980;BME280;57318;56.232;43.944;2023-03-19T01:24:14;100746.22;;;-6.09;65.26
69980;BME280;57318;56.232;43.944;2023-03-19T01:26:41;100744.44;;;-6.12;65.29
69980;BME280;57318;56.232;43.944;2023-03-19T01:29:08;100745.31;;;-6.13;65.24
69980;BME280;57318;56.232;43.944;2023-03-19T01:31:34;100731.41;;;-6.23;65.75
69980;BME280;57318;56.232;43.944;2023-03-19T01:34:01;100729.69;;;-6.24;65.59
69980;BME280;57318;56.232;43.944;2023-03-19T01:36:26;100740.94;;;-6.20;65.83
69980;BME280;57318;56.232;43.944;2023-03-19T01:38:52;100730.53;;;-6.25;65.87
69980;BME280;57318;56.232;43.944;2023-03-19T01:41:18;100733.09;;;-6.26;66.13
69980;BME280;57318;56.232;43.944;2023-03-19T01:43:44;100735.72;;;-6.25;66.08
69980;BME280;57318;56.232;43.944;2023-03-19T01:46:33;100743.44;;;-6.28;66.35
69980;BME280;57318;56.232;43.944;2023-03-19T01:49:04;100734.78;;;-6.31;66.92
69980;BME280;57318;56.232;43.944;2023-03-19T01:51:39;100727.00;;;-6.33;66.61
69980;BME280;57318;56.232;43.944;2023-03-19T01:54:10;100724.44;;;-6.33;66.76
69980;BME280;57318;56.232;43.944;2023-03-19T01:56:39;100727.84;;;-6.34;66.84
69980;BME280;57318;56.232;43.944;2023-03-19T01:59:14;100727.84;;;-6.34;66.95
69980;BME280;57318;56.232;43.944;2023-03-19T02:01:48;100722.63;;;-6.39;66.91
69980;BME280;57318;56.232;43.944;2023-03-19T02:04:15;100721.78;;;-6.39;66.74
69980;BME280;57318;56.232;43.944;2023-03-19T02:06:42;100728.63;;;-6.44;67.16
69980;BME280;57318;56.232;43.944;2023-03-19T02:09:08;100730.34;;;-6.43;67.02
69980;BME280;57318;56.232;43.944;2023-03-19T02:11:35;100718.22;;;-6.50;67.25
69980;BME280;57318;56.232;43.944;2023-03-19T02:14:02;100713.91;;;-6.51;67.03
69980;BME280;57318;56.232;43.944;2023-03-19T02:16:27;100721.63;;;-6.55;67.61
69980;BME280;57318;56.232;43.944;2023-03-19T02:18:53;100723.31;;;-6.58;67.87
69980;BME280;57318;56.232;43.944;2023-03-19T02:21:21;100713.78;;;-6.62;68.01
69980;BME280;57318;56.232;43.944;2023-03-19T02:24:01;100718.09;;;-6.63;67.95
69980;BME280;57318;56.232;43.944;2023-03-19T02:26:29;100712.03;;;-6.65;68.17
69980;BME280;57318;56.232;43.944;2023-03-19T02:28:55;100709.44;;;-6.65;68.28
69980;BME280;57318;56.232;43.944;2023-03-19T02:31:22;100714.59;;;-6.68;68.36
69980;BME280;57318;56.232;43.944;2023-03-19T02:34:14;100715.44;;;-6.69;68.41
69980;BME280;57318;56.232;43.944;2023-03-19T02:36:58;100705.91;;;-6.73;68.44
69980;BME280;57318;56.232;43.944;2023-03-19T02:39:28;100701.63;;;-6.74;68.64
69980;BME280;57318;56.232;43.944;2023-03-19T02:41:57;100707.59;;;-6.77;68.90
69980;BME280;57318;56.232;43.944;2023-03-19T02:44:23;100701.53;;;-6.80;69.18
69980;BME280;57318;56.232;43.944;2023-03-19T02:46:49;100706.72;;;-6.80;69.28
69980;BME280;57318;56.232;43.944;2023-03-19T02:49:16;100703.22;;;-6.82;69.28
69980;BME280;57318;56.232;43.944;2023-03-19T02:51:42;100697.19;;;-6.83;69.47
69980;BME280;57318;56.232;43.944;2023-03-19T02:54:07;100694.63;;;-6.81;69.55
69980;BME280;57318;56.232;43.944;2023-03-19T02:56:33;100689.44;;;-6.84;69.34
69980;BME280;57318;56.232;43.944;2023-03-19T02:58:59;100691.16;;;-6.83;69.52
69980;BME280;57318;56.232;43.944;2023-03-19T03:01:24;100691.16;;;-6.85;69.65
69980;BME280;57318;56.232;43.944;2023-03-19T03:03:50;100690.25;;;-6.87;69.66
69980;BME280;57318;56.232;43.944;2023-03-19T03:06:16;100685.13;;;-6.84;69.55
69980;BME280;57318;56.232;43.944;2023-03-19T03:08:42;100681.69;;;-6.83;69.53
69980;BME280;57318;56.232;43.944;2023-03-19T03:11:08;100682.50;;;-6.85;69.66
69980;BME280;57318;56.232;43.944;2023-03-19T03:13:34;100682.47;;;-6.89;69.50
69980;BME280;57318;56.232;43.944;2023-03-19T03:16:01;100686.81;;;-6.87;69.76
69980;BME280;57318;56.232;43.944;2023-03-19T03:18:27;100687.66;;;-6.89;69.97
69980;BME280;57318;56.232;43.944;2023-03-19T03:20:52;100690.22;;;-6.89;69.81
69980;BME280;57318;56.232;43.944;2023-03-19T03:23:19;100684.19;;;-6.91;69.78
69980;BME280;57318;56.232;43.944;2023-03-19T03:25:48;100684.22;;;-6.87;69.69
69980;BME280;57318;56.232;43.944;2023-03-19T03:28:15;100682.50;;;-6.85;70.10
69980;BME280;57318;56.232;43.944;2023-03-19T03:30:40;100680.84;;;-6.83;69.80
69980;BME280;57318;56.232;43.944;2023-03-19T03:33:06;100679.97;;;-6.81;69.70
69980;BME280;57318;56.232;43.944;2023-03-19T03:35:32;100667.94;;;-6.80;69.79
69980;BME280;57318;56.232;43.944;2023-03-19T03:37:58;100669.69;;;-6.76;69.59
69980;BME280;57318;56.232;43.944;2023-03-19T03:40:24;100668.03;;;-6.73;69.73
69980;BME280;57318;56.232;43.944;2023-03-19T03:42:49;100661.19;;;-6.67;69.38
69980;BME280;57318;56.232;43.944;2023-03-19T03:45:15;100656.88;;;-6.64;69.26
69980;BME280;57318;56.232;43.944;2023-03-19T03:47:41;100660.38;;;-6.59;69.41
69980;BME280;57318;56.232;43.944;2023-03-19T03:50:07;100650.94;;;-6.57;69.32
69980;BME280;57318;56.232;43.944;2023-03-19T03:52:35;100657.00;;;-6.53;69.22
69980;BME280;57318;56.232;43.944;2023-03-19T03:55:02;100652.72;;;-6.49;69.16
69980;BME280;57318;56.232;43.944;2023-03-19T03:57:28;100663.09;;;-6.46;69.00
69980;BME280;57318;56.232;43.944;2023-03-19T03:59:54;100654.47;;;-6.47;68.86
69980;BME280;57318;56.232;43.944;2023-03-19T04:02:20;100649.31;;;-6.44;68.68
69980;BME280;57318;56.232;43.944;2023-03-19T04:04:46;100658.88;;;-6.38;68.66
69980;BME280;57318;56.232;43.944;2023-03-19T04:07:12;100658.03;;;-6.34;68.29
69980;BME280;57318;56.232;43.944;2023-03-19T04:09:37;100653.72;;;-6.32;68.47
69980;BME280;57318;56.232;43.944;2023-03-19T04:12:03;100655.47;;;-6.31;68.07
69980;BME280;57318;56.232;43.944;2023-03-19T04:14:29;100642.56;;;-6.26;68.16
69980;BME280;57318;56.232;43.944;2023-03-19T04:16:55;100650.38;;;-6.22;68.27
69980;BME280;57318;56.232;43.944;2023-03-19T04:19:21;100632.28;;;-6.19;68.18
69980;BME280;57318;56.232;43.944;2023-03-19T04:21:47;100634.06;;;-6.14;68.20
69980;BME280;57318;56.232;43.944;2023-03-19T04:24:12;100631.47;;;-6.08;67.79
69980;BME280;57318;56.232;43.944;2023-03-19T04:26:38;100627.19;;;-6.08;67.65
69980;BME280;57318;56.232;43.944;2023-03-19T04:29:05;100627.22;;;-6.02;67.21
69980;BME280;57318;56.232;43.944;2023-03-19T04:31:33;100619.50;;;-5.97;67.07
69980;BME280;57318;56.232;43.944;2023-03-19T04:33:58;100622.09;;;-5.92;66.89
69980;BME280;57318;56.232;43.944;2023-03-19T04:36:24;100618.66;;;-5.88;66.75
69980;BME280;57318;56.232;43.944;2023-03-19T04:38:50;100620.41;;;-5.84;66.68
69980;BME280;57318;56.232;43.944;2023-03-19T04:41:16;100622.16;;;-5.75;66.08
69980;BME280;57318;56.232;43.944;2023-03-19T04:43:42;100617.91;;;-5.70;66.13
69980;BME280;57318;56.232;43.944;2023-03-19T04:46:09;100623.97;;;-5.64;65.68
69980;BME280;57318;56.232;43.944;2023-03-19T04:48:35;100617.09;;;-5.57;65.34
69980;BME280;57318;56.232;43.944;2023-03-19T04:51:04;100611.94;;;-5.48;65.54
69980;BME280;57318;56.232;43.944;2023-03-19T04:53:33;100621.47;;;-5.44;64.85
69980;BME280;57318;56.232;43.944;2023-03-19T04:55:59;100619.75;;;-5.38;64.49
69980;BME280;57318;56.232;43.944;2023-03-19T04:58:24;100617.22;;;-5.28;64.40
69980;BME280;57318;56.232;43.944;2023-03-19T05:00:50;100613.75;;;-5.22;63.88
69980;BME280;57318;56.232;43.944;2023-03-19T05:03:16;100617.28;;;-5.11;63.81
69980;BME280;57318;56.232;43.944;2023-03-19T05:05:41;100610.38;;;-5.07;63.17
69980;BME280;57318;56.232;43.944;2023-03-19T05:08:08;100614.72;;;-5.00;63.36
69980;BME280;57318;56.232;43.944;2023-03-19T05:10:34;100615.59;;;-4.93;62.64
69980;BME280;57318;56.232;43.944;2023-03-19T05:13:00;100613.88;;;-4.86;62.45
69980;BME280;57318;56.232;43.944;2023-03-19T05:15:26;100614.75;;;-4.75;61.95
69980;BME280;57318;56.232;43.944;2023-03-19T05:17:52;100611.31;;;-4.69;62.07
69980;BME280;57318;56.232;43.944;2023-03-19T05:20:18;100611.31;;;-4.57;61.83
69980;BME280;57318;56.232;43.944;2023-03-19T05:22:44;100606.13;;;-4.51;61.23
69980;BME280;57318;56.232;43.944;2023-03-19T05:25:11;100608.72;;;-4.37;60.88
69980;BME280;57318;56.232;43.944;2023-03-19T05:27:38;100603.53;;;-4.29;60.51
69980;BME280;57318;56.232;43.944;2023-03-19T05:30:05;100600.91;;;-4.15;59.99
69980;BME280;57318;56.232;43.944;2023-03-19T05:32:31;100600.06;;;-4.10;59.80
69980;BME280;57318;56.232;43.944;2023-03-19T05:34:57;100606.94;;;-3.96;59.39
69980;BME280;57318;56.232;43.944;2023-03-19T05:37:23;100596.53;;;-3.81;58.79
69980;BME280;57318;56.232;43.944;2023-03-19T05:39:50;100598.25;;;-3.75;58.56
69980;BME280;57318;56.232;43.944;2023-03-19T05:42:16;100595.63;;;-3.65;58.24
69980;BME280;57318;56.232;43.944;2023-03-19T05:44:41;100587.84;;;-3.63;57.60
69980;BME280;57318;56.232;43.944;2023-03-19T05:47:07;100590.38;;;-3.52;57.29
69980;BME280;57318;56.232;43.944;2023-03-19T05:49:34;100588.63;;;-3.41;57.38
69980;BME280;57318;56.232;43.944;2023-03-19T05:52:00;100584.25;;;-3.33;56.94
69980;BME280;57318;56.232;43.944;2023-03-19T05:54:26;100590.22;;;-3.18;55.77
69980;BME280;57318;56.232;43.944;2023-03-19T05:56:51;100582.41;;;-3.14;55.56
69980;BME280;57318;56.232;43.944;2023-03-19T05:59:17;100575.41;;;-3.05;55.47
69980;BME280;57318;56.232;43.944;2023-03-19T06:01:43;100580.56;;;-2.98;54.97
69980;BME280;57318;56.232;43.944;2023-03-19T06:04:08;100572.63;;;-2.73;54.80
69980;BME280;57318;56.232;43.944;2023-03-19T06:06:35;100565.25;;;-1.44;52.07
69980;BME280;57318;56.232;43.944;2023-03-19T06:09:00;100566.34;;;0.53;47.09
69980;BME280;57318;56.232;43.944;2023-03-19T06:11:26;100572.28;;;2.71;42.30
69980;BME280;57318;56.232;43.944;2023-03-19T06:13:52;100566.63;;;4.67;38.91
69980;BME280;57318;56.232;43.944;2023-03-19T06:16:18;100560.91;;;6.30;34.88
69980;BME280;57318;56.232;43.944;2023-03-19T06:18:43;100560.06;;;7.61;32.75
69980;BME280;57318;56.232;43.944;2023-03-19T06:21:10;100562.63;;;9.46;29.72
69980;BME280;57318;56.232;43.944;2023-03-19T06:23:36;100558.13;;;10.80;27.34
69980;BME280;57318;56.232;43.944;2023-03-19T06:26:01;100558.84;;;11.79;25.55
69980;BME280;57318;56.232;43.944;2023-03-19T06:28:27;100567.94;;;12.92;24.15
69980;BME280;57318;56.232;43.944;2023-03-19T06:30:54;100559.72;;;13.56;23.24
69980;BME280;57318;56.232;43.944;2023-03-19T06:33:20;100559.56;;;14.29;22.36
69980;BME280;57318;56.232;43.944;2023-03-19T06:35:47;100559.25;;;14.90;21.39
69980;BME280;57318;56.232;43.944;2023-03-19T06:38:13;100557.81;;;15.29;20.83
69980;BME280;57318;56.232;43.944;2023-03-19T06:40:38;100558.53;;;15.75;20.74
69980;BME280;57318;56.232;43.944;2023-03-19T06:43:04;100552.59;;;16.35;19.75
69980;BME280;57318;56.232;43.944;2023-03-19T06:45:30;100548.44;;;16.52;19.28
69980;BME280;57318;56.232;43.944;2023-03-19T06:47:55;100538.63;;;16.41;18.17
69980;BME280;57318;56.232;43.944;2023-03-19T06:50:22;100543.38;;;16.28;19.41
69980;BME280;57318;56.232;43.944;2023-03-19T06:52:48;100535.69;;;16.13;18.33
69980;BME280;57318;56.232;43.944;2023-03-19T06:55:13;100528.78;;;16.41;18.68
69980;BME280;57318;56.232;43.944;2023-03-19T06:57:39;100531.63;;;16.50;18.38
69980;BME280;57318;56.232;43.944;2023-03-19T07:00:06;100532.31;;;17.23;17.64
69980;BME280;57318;56.232;43.944;2023-03-19T07:02:34;100524.75;;;16.98;17.26
69980;BME280;57318;56.232;43.944;2023-03-19T07:05:00;100533.00;;;17.35;17.74
69980;BME280;57318;56.232;43.944;2023-03-19T07:07:26;100530.47;;;17.73;16.90
69980;BME280;57318;56.232;43.944;2023-03-19T07:09:52;100530.69;;;18.18;16.53
69980;BME280;57318;56.232;43.944;2023-03-19T07:12:17;100525.19;;;18.57;15.68
69980;BME280;57318;56.232;43.944;2023-03-19T07:14:43;100524.38;;;19.13;15.53
69980;BME280;57318;56.232;43.944;2023-03-19T07:17:10;100514.06;;;18.70;15.46
69980;BME280;57318;56.232;43.944;2023-03-19T07:19:36;100508.41;;;18.46;15.77
69980;BME280;57318;56.232;43.944;2023-03-19T07:22:02;100508.84;;;18.31;15.35
69980;BME280;57318;56.232;43.944;2023-03-19T07:24:28;100503.91;;;18.36;15.23
69980;BME280;57318;56.232;43.944;2023-03-19T07:26:53;100500.75;;;18.69;15.16
69980;BME280;57318;56.232;43.944;2023-03-19T07:29:19;100496.63;;;18.74;15.10
69980;BME280;57318;56.232;43.944;2023-03-19T07:31:45;100499.59;;;18.44;15.15
69980;BME280;57318;56.232;43.944;2023-03-19T07:34:11;100496.47;;;18.86;15.38
69980;BME280;57318;56.232;43.944;2023-03-19T07:36:37;100501.75;;;19.05;14.92
69980;BME280;57318;56.232;43.944;2023-03-19T07:39:02;100495.94;;;18.72;14.85
69980;BME280;57318;56.232;43.944;2023-03-19T07:41:28;100493.47;;;18.14;15.13
69980;BME280;57318;56.232;43.944;2023-03-19T07:43:54;100498.84;;;18.89;14.96
69980;BME280;57318;56.232;43.944;2023-03-19T07:46:19;100500.06;;;19.40;14.49
69980;BME280;57318;56.232;43.944;2023-03-19T07:48:45;100488.97;;;19.79;14.75
69980;BME280;57318;56.232;43.944;2023-03-19T07:51:11;100492.88;;;19.67;14.42
69980;BME280;57318;56.232;43.944;2023-03-19T07:53:37;100480.88;;;19.07;14.60
69980;BME280;57318;56.232;43.944;2023-03-19T07:56:03;100490.66;;;19.08;15.03
69980;BME280;57318;56.232;43.944;2023-03-19T07:58:28;100486.22;;;19.35;14.11
69980;BME280;57318;56.232;43.944;2023-03-19T08:00:54;100490.44;;;19.56;14.93
69980;BME280;57318;56.232;43.944;2023-03-19T08:03:20;100491.38;;;19.73;14.09
69980;BME280;57318;56.232;43.944;2023-03-19T08:05:48;100482.91;;;20.12;13.53
69980;BME280;57318;56.232;43.944;2023-03-19T08:08:15;100481.78;;;21.00;13.60
69980;BME280;57318;56.232;43.944;2023-03-19T08:10:41;100477.47;;;21.40;13.22
69980;BME280;57318;56.232;43.944;2023-03-19T08:13:07;100479.88;;;21.76;13.29
69980;BME280;57318;56.232;43.944;2023-03-19T08:15:32;100477.16;;;21.84;12.42
69980;BME280;57318;56.232;43.944;2023-03-19T08:17:59;100474.41;;;22.01;12.34
69980;BME280;57318;56.232;43.944;2023-03-19T08:20:25;100470.88;;;22.00;12.46
69980;BME280;57318;56.232;43.944;2023-03-19T08:22:50;100470.84;;;22.16;12.22
69980;BME280;57318;56.232;43.944;2023-03-19T08:25:16;100465.94;;;22.12;12.39
69980;BME280;57318;56.232;43.944;2023-03-19T08:27:42;100457.78;;;22.20;12.42
69980;BME280;57318;56.232;43.944;2023-03-19T08:30:09;100455.31;;;21.94;12.23
69980;BME280;57318;56.232;43.944;2023-03-19T08:32:35;100453.69;;;22.41;12.51
69980;BME280;57318;56.232;43.944;2023-03-19T08:35:02;100451.53;;;22.67;12.03
69980;BME280;57318;56.232;43.944;2023-03-19T08:37:29;100446.72;;;22.78;11.93
69980;BME280;57318;56.232;43.944;2023-03-19T08:39:54;100438.34;;;22.16;12.20
69980;BME280;57318;56.232;43.944;2023-03-19T08:42:21;100435.03;;;22.46;12.94
69980;BME280;57318;56.232;43.944;2023-03-19T08:44:47;100432.63;;;22.59;12.13
69980;BME280;57318;56.232;43.944;2023-03-19T08:47:13;100432.63;;;22.51;11.76
69980;BME280;57318;56.232;43.944;2023-03-19T08:49:39;100441.13;;;22.79;12.17
69980;BME280;57318;56.232;43.944;2023-03-19T08:52:06;100425.72;;;23.03;11.68
69980;BME280;57318;56.232;43.944;2023-03-19T08:54:32;100422.31;;;22.86;12.15
69980;BME280;57318;56.232;43.944;2023-03-19T08:56:59;100418.38;;;22.57;11.83
69980;BME280;57318;56.232;43.944;2023-03-19T08:59:26;100407.53;;;22.88;12.00
69980;BME280;57318;56.232;43.944;2023-03-19T09:01:52;100406.41;;;23.67;11.40
69980;BME280;57318;56.232;43.944;2023-03-19T09:04:21;100399.13;;;23.83;11.80
69980;BME280;57318;56.232;43.944;2023-03-19T09:06:48;100397.59;;;23.88;11.52
69980;BME280;57318;56.232;43.944;2023-03-19T09:09:20;100407.00;;;23.77;11.39
69980;BME280;57318;56.232;43.944;2023-03-19T09:11:47;100390.13;;;23.67;11.37
69980;BME280;57318;56.232;43.944;2023-03-19T09:14:13;100399.44;;;23.35;11.44
69980;BME280;57318;56.232;43.944;2023-03-19T09:16:40;100396.94;;;24.01;11.82
69980;BME280;57318;56.232;43.944;2023-03-19T09:19:06;100392.25;;;23.95;11.33
69980;BME280;57318;56.232;43.944;2023-03-19T09:21:32;100385.28;;;24.22;11.40
69980;BME280;57318;56.232;43.944;2023-03-19T09:23:58;100385.88;;;23.88;11.54
69980;BME280;57318;56.232;43.944;2023-03-19T09:26:24;100375.63;;;23.60;11.63
69980;BME280;57318;56.232;43.944;2023-03-19T09:28:50;100367.56;;;23.14;11.88
69980;BME280;57318;56.232;43.944;2023-03-19T09:31:16;100365.53;;;23.16;12.10
69980;BME280;57318;56.232;43.944;2023-03-19T09:33:41;100359.84;;;23.02;11.86
69980;BME280;57318;56.232;43.944;2023-03-19T09:36:07;100358.75;;;23.35;11.76
69980;BME280;57318;56.232;43.944;2023-03-19T09:38:33;100351.13;;;22.92;12.35
69980;BME280;57318;56.232;43.944;2023-03-19T09:46:38;100344.81;;;23.00;12.03
69980;BME280;57318;56.232;43.944;2023-03-19T09:49:11;100339.38;;;23.23;12.21
69980;BME280;57318;56.232;43.944;2023-03-19T09:51:49;100336.47;;;23.24;12.33
69980;BME280;57318;56.232;43.944;2023-03-19T09:54:31;100330.25;;;23.54;11.92
69980;BME280;57318;56.232;43.944;2023-03-19T09:56:58;100339.25;;;23.69;11.81
69980;BME280;57318;56.232;43.944;2023-03-19T09:59:24;100331.19;;;23.61;11.88
69980;BME280;57318;56.232;43.944;2023-03-19T10:13:44;100305.19;;;23.67;11.88
69980;BME280;57318;56.232;43.944;2023-03-19T10:16:19;100305.28;;;23.58;12.45
69980;BME280;57318;56.232;43.944;2023-03-19T10:18:51;100308.66;;;23.60;12.20
69980;BME280;57318;56.232;43.944;2023-03-19T10:21:26;100290.78;;;23.36;12.03
69980;BME280;57318;56.232;43.944;2023-03-19T10:26:31;100295.09;;;23.90;12.10
69980;BME280;57318;56.232;43.944;2023-03-19T10:31:57;100294.59;;;24.02;11.56
69980;BME280;57318;56.232;43.944;2023-03-19T10:36:46;100280.75;;;23.67;12.04
69980;BME280;57318;56.232;43.944;2023-03-19T10:39:14;100278.13;;;23.43;12.33
69980;BME280;57318;56.232;43.944;2023-03-19T10:41:52;100271.22;;;23.11;12.62
69980;BME280;57318;56.232;43.944;2023-03-19T10:44:34;100276.38;;;23.51;12.54
69980;BME280;57318;56.232;43.944;2023-03-19T10:47:13;100271.97;;;23.50;12.19
69980;BME280;57318;56.232;43.944;2023-03-19T10:49:39;100277.09;;;24.04;11.88
69980;BME280;57318;56.232;43.944;2023-03-19T10:54:43;100263.81;;;24.31;11.70
69980;BME280;57318;56.232;43.944;2023-03-19T10:57:26;100258.63;;;24.36;11.49
69980;BME280;57318;56.232;43.944;2023-03-19T10:59:53;100254.75;;;24.24;11.98
69980;BME280;57318;56.232;43.944;2023-03-19T11:02:21;100252.56;;;24.34;11.98
69980;BME280;57318;56.232;43.944;2023-03-19T11:04:51;100249.31;;;24.24;11.97
69980;BME280;57318;56.232;43.944;2023-03-19T11:07:31;100250.78;;;24.63;11.55
69980;BME280;57318;56.232;43.944;2023-03-19T11:09:57;100247.44;;;24.03;12.05
69980;BME280;57318;56.232;43.944;2023-03-19T11:12:31;100240.63;;;23.92;11.79
69980;BME280;57318;56.232;43.944;2023-03-19T11:14:59;100243.00;;;24.02;11.94
69980;BME280;57318;56.232;43.944;2023-03-19T11:17:44;100238.25;;;24.04;11.83
69980;BME280;57318;56.232;43.944;2023-03-19T11:22:51;100235.97;;;23.41;11.83
69980;BME280;57318;56.232;43.944;2023-03-19T11:25:18;100234.38;;;23.17;12.46
69980;BME280;57318;56.232;43.944;2023-03-19T11:28:08;100227.50;;;22.53;12.85
69980;BME280;57318;56.232;43.944;2023-03-19T11:36:27;100230.91;;;22.47;12.98
69980;BME280;57318;56.232;43.944;2023-03-19T11:39:03;100209.56;;;23.05;12.67
69980;BME280;57318;56.232;43.944;2023-03-19T11:51:56;100206.50;;;22.24;13.29
69980;BME280;57318;56.232;43.944;2023-03-19T11:56:59;100191.03;;;22.79;12.83
69980;BME280;57318;56.232;43.944;2023-03-19T12:04:59;100173.94;;;18.35;16.24
69980;BME280;57318;56.232;43.944;2023-03-19T12:21:44;100137.25;;;14.17;21.27
69980;BME280;57318;56.232;43.944;2023-03-19T12:24:31;100128.78;;;12.91;22.47
69980;BME280;57318;56.232;43.944;2023-03-19T12:29:59;100129.84;;;11.09;24.34
69980;BME280;57318;56.232;43.944;2023-03-19T12:33:08;100126.59;;;10.80;24.96
69980;BME280;57318;56.232;43.944;2023-03-19T12:35:34;100122.81;;;10.31;25.24
69980;BME280;57318;56.232;43.944;2023-03-19T12:38:25;100113.28;;;9.61;25.94
69980;BME280;57318;56.232;43.944;2023-03-19T12:41:01;100108.97;;;9.18;26.75
69980;BME280;57318;56.232;43.944;2023-03-19T12:43:54;100113.53;;;8.88;27.84
69980;BME280;57318;56.232;43.944;2023-03-19T12:46:26;100113.34;;;8.47;28.00
69980;BME280;57318;56.232;43.944;2023-03-19T12:51:50;100102.56;;;8.20;29.01
69980;BME280;57318;56.232;43.944;2023-03-19T12:54:20;100104.56;;;7.86;29.73
69980;BME280;57318;56.232;43.944;2023-03-19T12:57:02;100101.69;;;7.59;29.82
69980;BME280;57318;56.232;43.944;2023-03-19T12:59:42;100099.50;;;7.51;30.32
69980;BME280;57318;56.232;43.944;2023-03-19T13:05:00;100095.34;;;7.15;31.26
69980;BME280;57318;56.232;43.944;2023-03-19T13:08:22;100095.22;;;6.85;31.52
69980;BME280;57318;56.232;43.944;2023-03-19T13:10:38;100093.78;;;6.79;31.64
69980;BME280;57318;56.232;43.944;2023-03-19T13:19:20;100081.06;;;5.84;33.73
69980;BME280;57318;56.232;43.944;2023-03-19T13:21:52;100074.13;;;5.64;34.14
69980;BME280;57318;56.232;43.944;2023-03-19T13:24:37;100072.34;;;5.47;34.69
69980;BME280;57318;56.232;43.944;2023-03-19T13:27:06;100064.25;;;5.33;35.12
69980;BME280;57318;56.232;43.944;2023-03-19T13:29:34;100059.59;;;5.20;35.56
69980;BME280;57318;56.232;43.944;2023-03-19T13:32:22;100057.88;;;5.00;36.04
69980;BME280;57318;56.232;43.944;2023-03-19T13:34:48;100056.47;;;4.74;36.33
69980;BME280;57318;56.232;43.944;2023-03-19T13:37:16;100043.94;;;4.60;37.10
69980;BME280;57318;56.232;43.944;2023-03-19T13:39:44;100037.97;;;4.57;36.97
69980;BME280;57318;56.232;43.944;2023-03-19T13:45:03;100032.44;;;4.23;37.39
69980;BME280;57318;56.232;43.944;2023-03-19T13:58:20;100000.56;;;3.49;39.85
69980;BME280;57318;56.232;43.944;2023-03-19T14:01:08;100002.25;;;3.29;40.51
69980;BME280;57318;56.232;43.944;2023-03-19T14:03:39;100000.13;;;3.17;40.91
69980;BME280;57318;56.232;43.944;2023-03-19T14:09:01;99987.06;;;2.93;41.62
69980;BME280;57318;56.232;43.944;2023-03-19T14:11:30;99986.47;;;2.86;42.26
69980;BME280;57318;56.232;43.944;2023-03-19T14:14:05;99973.59;;;2.80;41.95
69980;BME280;57318;56.232;43.944;2023-03-19T14:16:40;99982.25;;;2.82;42.63
69980;BME280;57318;56.232;43.944;2023-03-19T14:19:11;99984.50;;;2.69;42.66
69980;BME280;57318;56.232;43.944;2023-03-19T14:22:07;99978.66;;;2.63;43.22
69980;BME280;57318;56.232;43.944;2023-03-19T14:24:39;99987.41;;;2.62;43.21
69980;BME280;57318;56.232;43.944;2023-03-19T14:27:38;99983.41;;;2.51;43.44